Time;durP1;ratioP1;P1;durP2;ratioP2;P2;SDS_P1;SDS_P2;PMS_P1;PMS_P2;Temp;Humidity;BMP_temperature;BMP_pressure;BME280_temperature;BME280_humidity;BME280_pressure;Samples;Min_cycle;Max_cycle;Signal;HPM_P1;HPM_P2
2023/04/18 00:01:32;;;;;;;12.32;4.88;;;;;;;;;;4913199;29;20048;-44
2023/04/18 00:04:01;;;;;;;16.37;5.57;;;;;;;;;;4908266;29;20130;-44
2023/04/18 00:06:30;;;;;;;17.98;6.20;;;;;;;;;;4913468;29;20040;-45
2023/04/18 00:08:57;;;;;;;14.15;5.80;;;;;;;;;;4905633;29;20072;-45
2023/04/18 00:11:27;;;;;;;19.02;6.90;;;;;;;;;;4911970;29;20040;-45
2023/04/18 00:13:56;;;;;;;15.65;6.80;;;;;;;;;;4901462;29;20079;-44
2023/04/18 00:16:24;;;;;;;17.60;7.10;;;;;;;;;;4911796;29;20095;-44
2023/04/18 00:18:52;;;;;;;15.80;6.72;;;;;;;;;;4895436;29;20527;-48
2023/04/18 00:21:22;;;;;;;15.52;6.47;;;;;;;;;;4906818;29;20076;-43
2023/04/18 00:23:50;;;;;;;15.02;6.88;;;;;;;;;;4896699;29;20071;-43
2023/04/18 00:26:17;;;;;;;16.63;7.45;;;;;;;;;;4905230;29;20123;-44
2023/04/18 00:28:46;;;;;;;18.13;7.60;;;;;;;;;;4911055;29;20092;-44
2023/04/18 00:31:14;;;;;;;18.13;7.35;;;;;;;;;;4907055;29;20140;-44
2023/04/18 00:33:42;;;;;;;18.65;7.28;;;;;;;;;;4908203;29;20098;-44
2023/04/18 00:36:10;;;;;;;17.30;6.88;;;;;;;;;;4910353;29;20070;-44
2023/04/18 00:38:37;;;;;;;20.40;7.63;;;;;;;;;;4910085;29;20047;-44
2023/04/18 00:41:05;;;;;;;19.23;8.13;;;;;;;;;;4916010;29;20067;-46
2023/04/18 00:43:33;;;;;;;20.20;8.30;;;;;;;;;;4902620;29;20589;-44
2023/04/18 00:46:03;;;;;;;20.70;7.90;;;;;;;;;;4907880;29;20490;-43
2023/04/18 00:48:30;;;;;;;22.58;8.77;;;;;;;;;;4910089;29;20054;-44
2023/04/18 00:50:59;;;;;;;17.90;7.80;;;;;;;;;;4913186;29;20163;-44
2023/04/18 00:53:27;;;;;;;21.43;8.80;;;;;;;;;;4896321;29;20051;-43
2023/04/18 00:55:54;;;;;;;20.40;8.85;;;;;;;;;;4903403;29;20044;-45
2023/04/18 00:58:23;;;;;;;21.98;8.45;;;;;;;;;;4905633;29;20047;-43
2023/04/18 01:00:52;;;;;;;19.23;8.68;;;;;;;;;;4899903;29;20046;-44
2023/04/18 01:03:22;;;;;;;22.42;8.82;;;;;;;;;;4913388;29;20135;-45
2023/04/18 01:05:51;;;;;;;24.57;9.77;;;;;;;;;;4904711;29;20545;-45
2023/04/18 01:08:19;;;;;;;26.23;10.30;;;;;;;;;;4903163;29;20078;-44
2023/04/18 01:10:46;;;;;;;23.92;8.80;;;;;;;;;;4915947;29;20052;-43
2023/04/18 01:13:15;;;;;;;26.13;9.82;;;;;;;;;;4896561;29;20545;-44
2023/04/18 01:15:43;;;;;;;24.27;9.63;;;;;;;;;;4912171;29;20050;-45
2023/04/18 01:18:12;;;;;;;28.10;10.87;;;;;;;;;;4915000;29;20091;-48
2023/04/18 01:20:44;;;;;;;30.55;10.70;;;;;;;;;;4912044;29;20047;-47
2023/04/18 01:23:12;;;;;;;27.02;10.98;;;;;;;;;;4912800;29;20515;-47
2023/04/18 01:25:41;;;;;;;27.90;11.25;;;;;;;;;;4898333;29;20387;-46
2023/04/18 01:28:09;;;;;;;28.27;10.18;;;;;;;;;;4919275;29;20058;-43
2023/04/18 01:30:37;;;;;;;31.33;11.77;;;;;;;;;;4902374;29;20046;-46
2023/04/18 01:33:05;;;;;;;32.40;10.85;;;;;;;;;;4909665;29;20590;-45
2023/04/18 01:35:33;;;;;;;28.35;11.00;;;;;;;;;;4893093;29;20048;-43
2023/04/18 01:38:01;;;;;;;30.65;11.38;;;;;;;;;;4918516;29;20147;-43
2023/04/18 01:40:29;;;;;;;26.92;10.45;;;;;;;;;;4905197;29;20518;-45
2023/04/18 01:42:58;;;;;;;29.60;11.33;;;;;;;;;;4910799;29;20087;-43
2023/04/18 01:45:26;;;;;;;26.10;10.98;;;;;;;;;;4913476;29;20048;-45
2023/04/18 01:47:54;;;;;;;27.98;10.57;;;;;;;;;;4904068;29;20100;-45
2023/04/18 01:50:21;;;;;;;29.65;10.30;;;;;;;;;;4880977;29;20533;-43
2023/04/18 01:52:49;;;;;;;26.55;10.18;;;;;;;;;;4908064;29;20495;-43
2023/04/18 01:55:17;;;;;;;27.87;10.90;;;;;;;;;;4901948;29;20808;-43
2023/04/18 01:57:46;;;;;;;31.48;11.82;;;;;;;;;;4909993;29;20410;-44
2023/04/18 02:00:16;;;;;;;30.92;12.05;;;;;;;;;;4912675;29;20729;-43
2023/04/18 02:02:44;;;;;;;25.67;10.25;;;;;;;;;;4912177;29;20039;-43
2023/04/18 02:05:11;;;;;;;30.42;12.45;;;;;;;;;;4903738;29;20035;-44
2023/04/18 02:07:39;;;;;;;31.37;12.07;;;;;;;;;;4911909;29;20490;-44
2023/04/18 02:10:08;;;;;;;29.52;11.85;;;;;;;;;;4890807;29;20085;-44
2023/04/18 02:12:36;;;;;;;29.77;11.68;;;;;;;;;;4913544;29;20461;-45
2023/04/18 02:15:04;;;;;;;29.17;11.50;;;;;;;;;;4908817;29;21281;-43
2023/04/18 02:17:34;;;;;;;31.80;11.88;;;;;;;;;;4905356;29;20068;-43
2023/04/18 02:20:03;;;;;;;28.63;11.33;;;;;;;;;;4902999;29;20451;-44
2023/04/18 02:22:30;;;;;;;29.38;11.57;;;;;;;;;;4906085;29;20048;-45
2023/04/18 02:24:58;;;;;;;30.45;12.57;;;;;;;;;;4904201;29;20051;-44
2023/04/18 02:27:26;;;;;;;29.02;11.75;;;;;;;;;;4899314;29;20130;-43
2023/04/18 02:29:53;;;;;;;28.33;11.63;;;;;;;;;;4896076;29;20040;-45
2023/04/18 02:32:21;;;;;;;28.20;11.17;;;;;;;;;;4906327;29;20130;-46
2023/04/18 02:34:50;;;;;;;26.77;9.93;;;;;;;;;;4913804;29;20056;-44
2023/04/18 02:37:18;;;;;;;28.23;10.93;;;;;;;;;;4907043;29;20120;-43
2023/04/18 02:39:46;;;;;;;28.02;11.55;;;;;;;;;;4893822;29;20040;-44
2023/04/18 02:42:13;;;;;;;28.90;12.10;;;;;;;;;;4901047;29;20043;-44
2023/04/18 02:44:41;;;;;;;27.10;11.33;;;;;;;;;;4909163;29;20159;-44
2023/04/18 02:47:09;;;;;;;25.35;10.38;;;;;;;;;;4907385;29;20659;-44
2023/04/18 02:49:36;;;;;;;29.15;11.05;;;;;;;;;;4900418;29;20068;-45
2023/04/18 02:52:06;;;;;;;26.15;10.73;;;;;;;;;;4905652;29;20086;-43
2023/04/18 02:54:34;;;;;;;27.40;11.57;;;;;;;;;;4899666;29;20186;-43
2023/04/18 02:57:02;;;;;;;29.83;12.13;;;;;;;;;;4910622;29;20474;-45
2023/04/18 02:59:29;;;;;;;33.85;11.57;;;;;;;;;;4904592;29;20565;-43
2023/04/18 03:01:57;;;;;;;28.15;11.40;;;;;;;;;;4906715;29;20036;-42
2023/04/18 03:04:25;;;;;;;26.33;10.45;;;;;;;;;;4898447;29;20052;-45
2023/04/18 03:06:54;;;;;;;29.73;12.38;;;;;;;;;;4904754;29;20493;-47
2023/04/18 03:09:24;;;;;;;30.57;12.13;;;;;;;;;;4901050;29;20482;-44
2023/04/18 03:11:52;;;;;;;29.88;11.18;;;;;;;;;;4907486;29;20466;-43
2023/04/18 03:14:19;;;;;;;29.90;11.35;;;;;;;;;;4911854;29;20095;-44
2023/04/18 03:16:47;;;;;;;30.25;11.32;;;;;;;;;;4908881;29;20427;-45
2023/04/18 03:19:15;;;;;;;33.15;12.48;;;;;;;;;;4912406;29;20122;-45
2023/04/18 03:21:43;;;;;;;29.67;13.07;;;;;;;;;;4903328;29;20071;-44
2023/04/18 03:24:11;;;;;;;29.85;11.85;;;;;;;;;;4897228;29;20512;-43
2023/04/18 03:26:40;;;;;;;32.28;11.02;;;;;;;;;;4913637;29;20083;-43
2023/04/18 03:29:08;;;;;;;28.88;11.40;;;;;;;;;;4905289;29;20135;-44
2023/04/18 03:31:35;;;;;;;33.22;12.93;;;;;;;;;;4906470;29;20354;-43
2023/04/18 03:34:03;;;;;;;27.47;11.23;;;;;;;;;;4902560;29;20048;-43
2023/04/18 03:36:31;;;;;;;31.73;12.65;;;;;;;;;;4912572;29;20051;-44
2023/04/18 03:38:59;;;;;;;30.15;11.85;;;;;;;;;;4917251;29;20094;-45
2023/04/18 03:41:26;;;;;;;27.98;12.25;;;;;;;;;;4908857;29;20098;-43
2023/04/18 03:43:55;;;;;;;27.85;12.05;;;;;;;;;;4907297;29;20119;-43
2023/04/18 03:46:23;;;;;;;30.13;11.70;;;;;;;;;;4909026;29;20641;-44
2023/04/18 03:48:51;;;;;;;32.75;11.98;;;;;;;;;;4906227;29;20075;-44
2023/04/18 03:51:19;;;;;;;35.08;12.77;;;;;;;;;;4903842;29;20122;-44
2023/04/18 03:53:46;;;;;;;29.00;12.35;;;;;;;;;;4911586;29;20054;-43
2023/04/18 03:56:14;;;;;;;33.88;12.70;;;;;;;;;;4898013;29;20040;-44
2023/04/18 03:58:42;;;;;;;31.77;11.67;;;;;;;;;;4908727;29;20250;-43
2023/04/18 04:01:11;;;;;;;33.08;11.95;;;;;;;;;;4904088;29;20063;-44
2023/04/18 04:03:39;;;;;;;30.48;12.77;;;;;;;;;;4911411;29;20047;-43
2023/04/18 04:06:07;;;;;;;30.27;11.13;;;;;;;;;;4909599;29;20063;-44
2023/04/18 04:08:35;;;;;;;30.02;11.68;;;;;;;;;;4900561;29;20707;-45
2023/04/18 04:11:02;;;;;;;31.53;12.40;;;;;;;;;;4904297;29;20154;-46
2023/04/18 04:13:30;;;;;;;32.03;11.85;;;;;;;;;;4897991;29;20063;-46
2023/04/18 04:15:58;;;;;;;35.15;12.02;;;;;;;;;;4896454;29;20044;-44
2023/04/18 04:18:29;;;;;;;31.08;11.90;;;;;;;;;;4910033;29;20043;-46
2023/04/18 04:20:57;;;;;;;35.70;12.73;;;;;;;;;;4905914;29;20070;-45
2023/04/18 04:23:25;;;;;;;28.17;12.00;;;;;;;;;;4911209;29;20273;-45
2023/04/18 04:25:53;;;;;;;31.75;10.88;;;;;;;;;;4909028;29;20047;-43
2023/04/18 04:28:21;;;;;;;36.78;12.65;;;;;;;;;;4910359;29;20054;-45
2023/04/18 04:30:49;;;;;;;33.15;11.93;;;;;;;;;;4906041;29;20059;-46
2023/04/18 04:33:18;;;;;;;35.10;12.38;;;;;;;;;;4901426;29;20075;-45
2023/04/18 04:35:48;;;;;;;31.90;12.00;;;;;;;;;;4906273;29;21123;-47
2023/04/18 04:38:18;;;;;;;31.38;11.00;;;;;;;;;;4911284;29;20128;-46
2023/04/18 04:40:46;;;;;;;32.55;11.15;;;;;;;;;;4905685;29;20036;-44
2023/04/18 04:43:14;;;;;;;34.67;12.02;;;;;;;;;;4908481;29;20067;-45
2023/04/18 04:45:43;;;;;;;29.83;11.15;;;;;;;;;;4910909;29;20071;-44
2023/04/18 04:48:11;;;;;;;33.93;11.37;;;;;;;;;;4912470;29;20112;-46
2023/04/18 04:50:40;;;;;;;31.50;11.80;;;;;;;;;;4912226;29;20046;-46
2023/04/18 04:53:11;;;;;;;37.25;12.90;;;;;;;;;;4904921;29;20094;-45
2023/04/18 04:55:38;;;;;;;30.67;11.23;;;;;;;;;;4906171;29;20043;-45
2023/04/18 04:58:06;;;;;;;32.15;12.45;;;;;;;;;;4907283;29;20036;-44
2023/04/18 05:00:34;;;;;;;31.70;11.63;;;;;;;;;;4911636;29;20048;-47
2023/04/18 05:03:02;;;;;;;30.55;10.90;;;;;;;;;;4894743;29;20068;-46
2023/04/18 05:05:30;;;;;;;31.13;11.40;;;;;;;;;;4903033;29;20115;-43
2023/04/18 05:07:58;;;;;;;28.30;11.07;;;;;;;;;;4914078;29;20123;-43
2023/04/18 05:10:27;;;;;;;31.30;10.60;;;;;;;;;;4914516;29;20050;-46
2023/04/18 05:12:55;;;;;;;27.13;10.27;;;;;;;;;;4898730;28;20561;-44
2023/04/18 05:15:23;;;;;;;24.80;10.38;;;;;;;;;;4906890;29;20087;-43
2023/04/18 05:17:51;;;;;;;26.92;10.25;;;;;;;;;;4911127;29;20053;-43
2023/04/18 05:20:18;;;;;;;24.02;9.90;;;;;;;;;;4911768;29;20072;-46
2023/04/18 05:22:46;;;;;;;29.05;10.25;;;;;;;;;;4911811;29;20562;-46
2023/04/18 05:25:16;;;;;;;29.67;10.17;;;;;;;;;;4908406;29;20041;-44
2023/04/18 05:27:45;;;;;;;25.45;9.93;;;;;;;;;;4911935;29;20080;-45
2023/04/18 05:30:12;;;;;;;28.85;9.85;;;;;;;;;;4905804;29;20046;-43
2023/04/18 05:32:40;;;;;;;26.85;8.73;;;;;;;;;;4906758;29;20035;-46
2023/04/18 05:35:08;;;;;;;26.70;9.80;;;;;;;;;;4910356;29;20047;-43
2023/04/18 05:37:36;;;;;;;23.83;9.83;;;;;;;;;;4911349;29;20047;-44
2023/04/18 05:40:04;;;;;;;25.98;9.73;;;;;;;;;;4913971;29;20607;-49
2023/04/18 05:42:31;;;;;;;23.75;9.73;;;;;;;;;;4897736;29;20087;-46
2023/04/18 05:45:01;;;;;;;23.38;8.90;;;;;;;;;;4912482;29;20052;-43
2023/04/18 05:47:29;;;;;;;22.13;9.52;;;;;;;;;;4909210;29;20056;-43
2023/04/18 05:49:59;;;;;;;22.47;9.57;;;;;;;;;;4911430;29;20576;-46
2023/04/18 05:52:27;;;;;;;25.85;9.70;;;;;;;;;;4915357;29;20121;-43
2023/04/18 05:54:55;;;;;;;25.63;9.65;;;;;;;;;;4896606;29;20144;-45
2023/04/18 05:57:22;;;;;;;26.23;9.65;;;;;;;;;;4915895;29;20082;-43
2023/04/18 05:59:50;;;;;;;27.83;9.95;;;;;;;;;;4912431;29;20035;-45
2023/04/18 06:02:19;;;;;;;26.77;10.17;;;;;;;;;;4912914;29;20055;-42
2023/04/18 06:04:47;;;;;;;24.63;8.95;;;;;;;;;;4912670;29;20066;-45
2023/04/18 06:07:16;;;;;;;28.02;10.48;;;;;;;;;;4917636;29;20152;-44
2023/04/18 06:09:43;;;;;;;26.67;9.80;;;;;;;;;;4904951;29;20235;-43
2023/04/18 06:12:11;;;;;;;30.75;9.85;;;;;;;;;;4911496;29;20065;-45
2023/04/18 06:14:39;;;;;;;32.53;10.77;;;;;;;;;;4906836;29;20135;-44
2023/04/18 06:17:08;;;;;;;28.80;9.73;;;;;;;;;;4914255;29;20330;-43
2023/04/18 06:19:38;;;;;;;33.78;9.95;;;;;;;;;;4913674;29;20043;-45
2023/04/18 06:22:06;;;;;;;24.50;9.80;;;;;;;;;;4904910;29;20111;-44
2023/04/18 06:24:33;;;;;;;23.25;8.82;;;;;;;;;;4903929;29;20056;-43
2023/04/18 06:27:01;;;;;;;23.37;9.17;;;;;;;;;;4896422;29;20048;-45
2023/04/18 06:29:32;;;;;;;24.42;8.85;;;;;;;;;;4909474;29;20123;-44
2023/04/18 06:31:59;;;;;;;23.92;9.27;;;;;;;;;;4891498;29;20487;-44
2023/04/18 06:34:27;;;;;;;22.75;8.63;;;;;;;;;;4905284;29;20797;-43
2023/04/18 06:36:56;;;;;;;27.50;9.35;;;;;;;;;;4905337;29;20499;-43
2023/04/18 06:39:24;;;;;;;30.80;9.60;;;;;;;;;;4910418;29;20044;-44
2023/04/18 06:41:51;;;;;;;25.02;9.35;;;;;;;;;;4908814;29;20142;-43
2023/04/18 06:44:21;;;;;;;25.45;9.10;;;;;;;;;;4901032;29;20044;-43
2023/04/18 06:46:49;;;;;;;27.65;10.57;;;;;;;;;;4902248;29;20044;-45
2023/04/18 06:49:18;;;;;;;27.20;10.02;;;;;;;;;;4913507;29;20521;-42
2023/04/18 06:51:51;;;;;;;26.57;9.13;;;;;;;;;;4909334;29;20095;-43
2023/04/18 06:54:20;;;;;;;25.60;9.50;;;;;;;;;;4904073;29;20144;-43
2023/04/18 06:56:48;;;;;;;24.52;9.00;;;;;;;;;;4910396;29;20048;-43
2023/04/18 06:59:16;;;;;;;25.52;9.35;;;;;;;;;;4911612;29;20079;-43
2023/04/18 07:01:43;;;;;;;21.25;9.10;;;;;;;;;;4903518;29;20123;-45
2023/04/18 07:04:11;;;;;;;22.80;8.43;;;;;;;;;;4912039;29;20467;-42
2023/04/18 07:06:39;;;;;;;23.00;8.95;;;;;;;;;;4900786;29;20131;-43
2023/04/18 07:09:07;;;;;;;22.90;8.38;;;;;;;;;;4913653;29;20127;-42
2023/04/18 07:11:38;;;;;;;24.17;9.98;;;;;;;;;;4913062;29;20039;-44
2023/04/18 07:14:06;;;;;;;28.40;9.23;;;;;;;;;;4909752;29;20040;-43
2023/04/18 07:16:34;;;;;;;22.60;8.80;;;;;;;;;;4907257;29;20085;-43
2023/04/18 07:19:01;;;;;;;24.50;10.27;;;;;;;;;;4909256;29;20182;-43
2023/04/18 07:21:29;;;;;;;26.58;9.18;;;;;;;;;;4892804;29;20130;-45
2023/04/18 07:23:57;;;;;;;24.65;9.32;;;;;;;;;;4912117;29;20178;-44
2023/04/18 07:26:26;;;;;;;25.85;9.63;;;;;;;;;;4913941;29;20051;-46
2023/04/18 07:28:55;;;;;;;24.87;9.63;;;;;;;;;;4914206;29;20054;-43
2023/04/18 07:31:24;;;;;;;27.40;9.82;;;;;;;;;;4904288;29;20627;-43
2023/04/18 07:33:52;;;;;;;23.77;9.63;;;;;;;;;;4898162;29;20742;-45
2023/04/18 07:36:20;;;;;;;25.60;9.00;;;;;;;;;;4910273;29;20052;-46
2023/04/18 07:38:47;;;;;;;26.63;9.32;;;;;;;;;;4893961;29;20086;-45
2023/04/18 07:41:16;;;;;;;27.57;9.60;;;;;;;;;;4904667;29;20040;-44
2023/04/18 07:43:44;;;;;;;28.05;11.20;;;;;;;;;;4902659;29;20119;-46
2023/04/18 07:46:17;;;;;;;27.48;10.70;;;;;;;;;;4897529;29;20044;-44
2023/04/18 07:48:45;;;;;;;27.05;10.70;;;;;;;;;;4904279;29;20094;-45
2023/04/18 07:51:13;;;;;;;27.33;10.85;;;;;;;;;;4904858;29;20307;-47
2023/04/18 07:53:42;;;;;;;26.97;10.70;;;;;;;;;;4893140;29;20058;-45
2023/04/18 07:56:11;;;;;;;29.40;10.98;;;;;;;;;;4916164;29;20043;-45
2023/04/18 07:58:38;;;;;;;25.70;11.10;;;;;;;;;;4906772;29;20040;-45
2023/04/18 08:01:07;;;;;;;25.90;10.45;;;;;;;;;;4901510;29;20145;-45
2023/04/18 08:03:36;;;;;;;26.88;10.05;;;;;;;;;;4897125;29;21150;-45
2023/04/18 08:06:05;;;;;;;26.10;10.53;;;;;;;;;;4907541;29;20054;-44
2023/04/18 08:08:33;;;;;;;25.23;9.60;;;;;;;;;;4900306;29;20064;-45
2023/04/18 08:11:01;;;;;;;25.23;10.32;;;;;;;;;;4899929;29;20584;-44
2023/04/18 08:13:28;;;;;;;26.13;10.05;;;;;;;;;;4908659;29;20495;-45
2023/04/18 08:15:58;;;;;;;24.13;9.68;;;;;;;;;;4902195;29;20454;-44
2023/04/18 08:18:26;;;;;;;26.07;10.63;;;;;;;;;;4900629;29;20043;-44
2023/04/18 08:20:55;;;;;;;25.10;10.43;;;;;;;;;;4909700;29;20047;-47
2023/04/18 08:23:22;;;;;;;27.00;10.52;;;;;;;;;;4900848;29;20071;-44
2023/04/18 08:25:50;;;;;;;26.75;10.18;;;;;;;;;;4911446;29;20058;-45
2023/04/18 08:28:18;;;;;;;21.10;8.75;;;;;;;;;;4903077;29;20133;-44
2023/04/18 08:30:47;;;;;;;23.23;8.43;;;;;;;;;;4910109;29;20044;-44
2023/04/18 08:33:16;;;;;;;21.60;8.68;;;;;;;;;;4872668;29;20399;-44
2023/04/18 08:35:44;;;;;;;20.75;9.02;;;;;;;;;;4879674;29;20456;-44
2023/04/18 08:38:13;;;;;;;23.70;9.48;;;;;;;;;;4890383;29;20130;-44
2023/04/18 08:40:42;;;;;;;20.73;7.85;;;;;;;;;;4892509;29;20039;-44
2023/04/18 08:43:12;;;;;;;22.60;9.93;;;;;;;;;;4883902;29;20048;-44
2023/04/18 08:45:40;;;;;;;21.75;8.65;;;;;;;;;;4892933;29;20078;-44
2023/04/18 08:48:12;;;;;;;22.52;9.57;;;;;;;;;;4897631;29;20050;-44
2023/04/18 08:50:41;;;;;;;16.33;7.43;;;;;;;;;;4888503;29;20036;-45
2023/04/18 08:53:09;;;;;;;26.98;9.95;;;;;;;;;;4866536;29;20079;-46
2023/04/18 08:55:39;;;;;;;20.83;8.17;;;;;;;;;;4899245;29;20607;-45
2023/04/18 08:58:07;;;;;;;17.85;6.50;;;;;;;;;;4890482;29;20051;-46
2023/04/18 09:00:35;;;;;;;18.55;6.68;;;;;;;;;;4897099;29;20522;-44
2023/04/18 09:03:02;;;;;;;22.67;7.55;;;;;;;;;;4886649;29;20048;-44
2023/04/18 09:05:30;;;;;;;17.80;6.95;;;;;;;;;;4896327;29;20044;-44
2023/04/18 09:07:58;;;;;;;19.10;7.77;;;;;;;;;;4880626;29;20044;-44
2023/04/18 09:10:27;;;;;;;17.05;7.63;;;;;;;;;;4901003;29;20606;-45
2023/04/18 09:12:57;;;;;;;19.58;7.95;;;;;;;;;;4905476;29;20032;-45
2023/04/18 09:15:27;;;;;;;18.27;7.30;;;;;;;;;;4896874;29;20100;-47
2023/04/18 09:17:56;;;;;;;21.05;8.65;;;;;;;;;;4903896;29;20844;-44
2023/04/18 09:20:34;;;;;;;18.20;6.37;;;;;;;;;;4910263;29;20078;-47
2023/04/18 09:23:03;;;;;;;17.35;8.07;;;;;;;;;;4905530;29;20055;-44
2023/04/18 09:25:33;;;;;;;18.98;7.90;;;;;;;;;;4912192;29;20486;-49
2023/04/18 09:28:03;;;;;;;19.05;8.20;;;;;;;;;;4916458;29;20075;-45
2023/04/18 09:30:40;;;;;;;24.63;8.85;;;;;;;;;;4920074;29;20051;-46
2023/04/18 09:33:09;;;;;;;19.37;8.73;;;;;;;;;;4905490;29;20092;-44
2023/04/18 09:35:37;;;;;;;18.40;7.38;;;;;;;;;;4906329;29;20569;-47
2023/04/18 09:38:05;;;;;;;11.52;5.30;;;;;;;;;;4906855;29;20126;-46
2023/04/18 09:40:33;;;;;;;19.33;6.93;;;;;;;;;;4910931;29;20051;-47
2023/04/18 09:43:16;;;;;;;18.73;8.77;;;;;;;;;;4903825;29;20040;-45
2023/04/18 09:45:46;;;;;;;20.13;8.43;;;;;;;;;;4900876;29;20131;-45
2023/04/18 09:48:14;;;;;;;17.75;8.10;;;;;;;;;;4895205;29;20055;-46
2023/04/18 09:50:42;;;;;;;15.52;7.18;;;;;;;;;;4887302;29;20059;-45
2023/04/18 09:53:12;;;;;;;17.17;7.80;;;;;;;;;;4885774;29;20047;-44
2023/04/18 09:55:41;;;;;;;18.80;8.02;;;;;;;;;;4899856;29;20056;-45
2023/04/18 09:58:10;;;;;;;17.83;8.73;;;;;;;;;;4889769;29;20064;-44
2023/04/18 10:00:39;;;;;;;19.27;8.15;;;;;;;;;;4895054;29;20043;-46
2023/04/18 10:03:08;;;;;;;19.17;9.10;;;;;;;;;;4881976;29;20063;-46
2023/04/18 10:05:38;;;;;;;22.70;9.18;;;;;;;;;;4894180;29;20044;-44
2023/04/18 10:08:06;;;;;;;17.40;9.57;;;;;;;;;;4887709;29;20040;-43
2023/04/18 10:10:35;;;;;;;17.17;8.10;;;;;;;;;;4891075;29;20099;-47
2023/04/18 10:13:07;;;;;;;15.75;7.60;;;;;;;;;;4876297;29;20059;-45
2023/04/18 10:15:36;;;;;;;16.08;8.10;;;;;;;;;;4891472;29;20119;-44
2023/04/18 10:18:09;;;;;;;21.45;8.70;;;;;;;;;;4883849;29;20039;-44
2023/04/18 10:20:37;;;;;;;17.38;8.35;;;;;;;;;;4884753;29;20103;-44
2023/04/18 10:23:28;;;;;;;18.00;8.03;;;;;;;;;;4883964;29;20064;-45
2023/04/18 10:25:56;;;;;;;19.13;8.10;;;;;;;;;;4892259;29;20055;-44
2023/04/18 10:28:26;;;;;;;15.88;7.32;;;;;;;;;;4882349;29;20115;-46
2023/04/18 10:30:56;;;;;;;19.67;7.65;;;;;;;;;;4890704;29;20096;-47
2023/04/18 10:33:27;;;;;;;16.50;7.15;;;;;;;;;;4863013;29;20667;-45
2023/04/18 10:36:20;;;;;;;17.10;7.90;;;;;;;;;;4884881;29;20066;-44
2023/04/18 10:38:49;;;;;;;16.73;8.27;;;;;;;;;;4878478;29;20079;-45
2023/04/18 10:41:19;;;;;;;15.65;6.90;;;;;;;;;;4892662;29;20039;-44
2023/04/18 10:44:05;;;;;;;16.33;7.97;;;;;;;;;;4873380;29;20497;-44
2023/04/18 10:46:37;;;;;;;16.67;7.28;;;;;;;;;;4891400;29;20056;-44
2023/04/18 10:49:15;;;;;;;16.20;7.33;;;;;;;;;;4886077;29;20333;-43
2023/04/18 10:51:44;;;;;;;14.93;7.18;;;;;;;;;;4880786;29;20051;-44
2023/04/18 10:54:12;;;;;;;14.57;6.78;;;;;;;;;;4886493;29;20054;-45
2023/04/18 10:56:51;;;;;;;14.63;6.95;;;;;;;;;;4893433;29;20479;-45
2023/04/18 10:59:22;;;;;;;14.98;7.70;;;;;;;;;;4890579;29;20072;-44
2023/04/18 11:01:54;;;;;;;14.27;7.23;;;;;;;;;;4889822;29;20507;-44
2023/04/18 11:04:23;;;;;;;16.65;7.30;;;;;;;;;;4878984;29;20044;-46
2023/04/18 11:06:54;;;;;;;13.10;6.68;;;;;;;;;;4883566;29;20052;-46
2023/04/18 11:09:22;;;;;;;15.52;5.68;;;;;;;;;;4879835;29;20032;-45
2023/04/18 11:12:02;;;;;;;13.18;5.88;;;;;;;;;;4877146;29;20058;-46
2023/04/18 11:14:38;;;;;;;14.50;7.00;;;;;;;;;;4885988;29;20083;-45
2023/04/18 11:17:17;;;;;;;14.93;6.70;;;;;;;;;;4896471;29;20064;-44
2023/04/18 11:19:47;;;;;;;13.27;6.25;;;;;;;;;;4902175;29;20102;-44
2023/04/18 11:22:16;;;;;;;15.77;6.97;;;;;;;;;;4876386;29;20056;-47
2023/04/18 11:24:44;;;;;;;12.88;5.57;;;;;;;;;;4889102;29;20123;-46
2023/04/18 11:27:12;;;;;;;12.47;6.10;;;;;;;;;;4888961;29;20048;-43
2023/04/18 11:29:39;;;;;;;11.57;5.38;;;;;;;;;;4884389;29;20095;-46
2023/04/18 11:32:07;;;;;;;16.45;6.35;;;;;;;;;;4878336;29;20741;-43
2023/04/18 11:34:38;;;;;;;11.85;5.93;;;;;;;;;;4896034;29;20422;-43
2023/04/18 11:37:06;;;;;;;11.73;6.20;;;;;;;;;;4876874;29;20050;-45
2023/04/18 11:39:34;;;;;;;13.13;5.47;;;;;;;;;;4879995;29;20044;-44
2023/04/18 11:42:01;;;;;;;15.98;6.28;;;;;;;;;;4892459;29;20075;-45
2023/04/18 11:44:29;;;;;;;12.00;5.53;;;;;;;;;;4894984;29;20497;-46
2023/04/18 11:46:57;;;;;;;14.95;6.57;;;;;;;;;;4879337;29;20087;-48
2023/04/18 11:49:25;;;;;;;15.82;5.85;;;;;;;;;;4892445;29;20051;-47
2023/04/18 11:51:55;;;;;;;13.00;5.13;;;;;;;;;;4881656;29;20047;-44
2023/04/18 11:54:35;;;;;;;10.98;5.05;;;;;;;;;;4886605;29;20130;-45
2023/04/18 11:57:03;;;;;;;16.30;5.07;;;;;;;;;;4893805;29;20122;-44
2023/04/18 11:59:31;;;;;;;14.88;5.43;;;;;;;;;;4884368;29;20083;-47
2023/04/18 12:01:59;;;;;;;11.68;5.50;;;;;;;;;;4868464;29;20071;-44
2023/04/18 12:04:52;;;;;;;13.67;5.03;;;;;;;;;;4889904;29;20739;-44
2023/04/18 12:07:31;;;;;;;10.70;4.72;;;;;;;;;;4885029;29;20043;-44
2023/04/18 12:09:59;;;;;;;9.93;4.70;;;;;;;;;;4892323;29;20063;-45
2023/04/18 12:12:27;;;;;;;12.02;5.15;;;;;;;;;;4872896;29;20040;-46
2023/04/18 12:14:59;;;;;;;13.18;4.72;;;;;;;;;;4883529;29;20044;-44
2023/04/18 12:17:26;;;;;;;11.07;4.93;;;;;;;;;;4880765;29;20071;-44
2023/04/18 12:19:54;;;;;;;14.00;4.97;;;;;;;;;;4880550;29;20048;-44
2023/04/18 12:25:20;;;;;;;10.68;4.32;;;;;;;;;;5111555;27;20448;-45
2023/04/18 12:27:55;;;;;;;9.80;4.35;;;;;;;;;;5104748;27;20135;-45
2023/04/18 12:30:24;;;;;;;9.40;4.35;;;;;;;;;;5111287;27;20050;-44
2023/04/18 12:32:52;;;;;;;11.25;4.88;;;;;;;;;;5101559;27;20039;-43
2023/04/18 12:35:21;;;;;;;10.73;4.87;;;;;;;;;;5093409;27;20103;-43
2023/04/18 12:37:50;;;;;;;10.57;4.70;;;;;;;;;;5107229;27;20049;-43
2023/04/18 12:40:19;;;;;;;12.20;4.97;;;;;;;;;;5110885;27;20039;-44
2023/04/18 12:42:47;;;;;;;11.80;4.90;;;;;;;;;;5104253;27;20405;-44
2023/04/18 12:45:16;;;;;;;11.23;4.38;;;;;;;;;;5113592;27;20479;-44
2023/04/18 12:47:44;;;;;;;9.50;4.03;;;;;;;;;;5106698;27;20046;-44
2023/04/18 12:50:15;;;;;;;11.77;5.03;;;;;;;;;;5110814;27;20041;-45
2023/04/18 12:52:43;;;;;;;10.95;3.97;;;;;;;;;;5101412;27;20675;-44
2023/04/18 12:55:11;;;;;;;10.43;4.50;;;;;;;;;;5109200;27;20023;-45
2023/04/18 12:57:40;;;;;;;11.07;5.00;;;;;;;;;;5108289;27;20383;-44
2023/04/18 13:00:09;;;;;;;12.40;4.10;;;;;;;;;;5106568;27;20039;-47
2023/04/18 13:02:39;;;;;;;10.30;4.45;;;;;;;;;;5098349;27;20555;-44
2023/04/18 13:05:07;;;;;;;8.10;4.10;;;;;;;;;;5111480;27;20035;-43
2023/04/18 13:07:36;;;;;;;9.50;4.75;;;;;;;;;;5101251;27;20446;-45
2023/04/18 13:10:04;;;;;;;10.73;4.72;;;;;;;;;;5108524;27;20551;-44
2023/04/18 13:12:32;;;;;;;8.90;4.37;;;;;;;;;;5078845;27;20024;-43
2023/04/18 13:15:01;;;;;;;11.05;4.38;;;;;;;;;;5113727;27;20095;-46
2023/04/18 13:17:30;;;;;;;12.75;4.43;;;;;;;;;;5093476;27;20173;-45
2023/04/18 13:19:57;;;;;;;10.52;4.97;;;;;;;;;;5106019;27;20046;-44
2023/04/18 13:22:27;;;;;;;10.02;4.82;;;;;;;;;;5107511;27;20088;-43
2023/04/18 13:24:54;;;;;;;28.83;4.80;;;;;;;;;;5109390;27;21784;-43
2023/04/18 13:27:22;;;;;;;12.48;4.88;;;;;;;;;;5111820;27;20070;-44
2023/04/18 13:29:50;;;;;;;13.50;4.68;;;;;;;;;;5107929;27;20046;-45
2023/04/18 13:32:19;;;;;;;9.30;4.38;;;;;;;;;;5096337;27;20123;-44
2023/04/18 13:34:47;;;;;;;10.55;5.28;;;;;;;;;;5111384;27;20075;-43
2023/04/18 13:37:15;;;;;;;10.40;4.40;;;;;;;;;;5094596;27;20048;-44
2023/04/18 13:39:43;;;;;;;9.73;4.45;;;;;;;;;;5098123;27;20095;-43
2023/04/18 13:42:11;;;;;;;10.48;4.43;;;;;;;;;;5092653;27;20046;-43
2023/04/18 13:44:42;;;;;;;9.13;4.30;;;;;;;;;;5101250;27;20391;-43
2023/04/18 13:47:10;;;;;;;10.13;5.22;;;;;;;;;;5092422;27;20047;-44
2023/04/18 13:49:39;;;;;;;9.10;4.23;;;;;;;;;;5102322;27;20167;-44
2023/04/18 13:52:07;;;;;;;8.88;4.10;;;;;;;;;;5084030;27;20050;-44
2023/04/18 13:54:36;;;;;;;9.15;4.10;;;;;;;;;;5098926;27;20039;-44
2023/04/18 13:57:10;;;;;;;9.27;4.18;;;;;;;;;;5097489;27;20454;-44
2023/04/18 13:59:38;;;;;;;9.75;4.03;;;;;;;;;;5096020;27;20454;-45
2023/04/18 14:02:06;;;;;;;9.83;4.33;;;;;;;;;;5094582;27;20123;-46
2023/04/18 14:04:34;;;;;;;9.63;4.97;;;;;;;;;;5090818;27;20071;-48
2023/04/18 14:07:05;;;;;;;11.63;4.13;;;;;;;;;;5096687;27;20042;-45
2023/04/18 14:09:32;;;;;;;8.18;3.50;;;;;;;;;;5097382;27;20392;-45
2023/04/18 14:12:00;;;;;;;12.02;3.92;;;;;;;;;;5086596;27;20091;-46
2023/04/18 14:14:28;;;;;;;10.63;4.70;;;;;;;;;;5076749;27;20047;-46
2023/04/18 14:16:57;;;;;;;8.02;3.67;;;;;;;;;;5097152;27;20046;-45
2023/04/18 14:19:24;;;;;;;9.07;3.97;;;;;;;;;;5098365;27;20043;-45
2023/04/18 14:21:52;;;;;;;9.90;4.15;;;;;;;;;;5093173;27;20062;-45
2023/04/18 14:24:21;;;;;;;9.80;3.75;;;;;;;;;;5092980;27;20058;-45
2023/04/18 14:26:49;;;;;;;12.27;3.50;;;;;;;;;;5079335;27;20478;-44
2023/04/18 14:29:17;;;;;;;9.57;4.20;;;;;;;;;;5086972;27;20047;-44
2023/04/18 14:31:44;;;;;;;10.55;4.03;;;;;;;;;;5097893;27;20144;-45
2023/04/18 14:34:12;;;;;;;8.15;3.60;;;;;;;;;;5087571;27;20035;-47
2023/04/18 14:36:40;;;;;;;15.43;4.15;;;;;;;;;;5093636;27;20968;-45
2023/04/18 14:39:08;;;;;;;11.60;4.27;;;;;;;;;;5088516;27;20051;-46